sensor_id;sensor_type;location;lat;lon;timestamp;temperature;humidity
7254;DHT22;4060;49.186;9.226;2022-07-29T00:01:42;31.30;32.40
7254;DHT22;4060;49.186;9.226;2022-07-29T00:04:12;31.30;32.50
7254;DHT22;4060;49.186;9.226;2022-07-29T00:06:42;31.20;32.50
7254;DHT22;4060;49.186;9.226;2022-07-29T00:09:11;31.20;32.70
7254;DHT22;4060;49.186;9.226;2022-07-29T00:11:40;31.20;32.80
7254;DHT22;4060;49.186;9.226;2022-07-29T00:14:10;31.10;32.90
7254;DHT22;4060;49.186;9.226;2022-07-29T00:16:41;31.10;33.00
7254;DHT22;4060;49.186;9.226;2022-07-29T00:19:10;31.10;33.10
7254;DHT22;4060;49.186;9.226;2022-07-29T00:21:40;31.10;33.80
7254;DHT22;4060;49.186;9.226;2022-07-29T00:24:09;31.10;33.30
7254;DHT22;4060;49.186;9.226;2022-07-29T00:26:39;31.00;33.40
7254;DHT22;4060;49.186;9.226;2022-07-29T00:29:08;31.00;33.50
7254;DHT22;4060;49.186;9.226;2022-07-29T00:31:40;31.00;33.60
7254;DHT22;4060;49.186;9.226;2022-07-29T00:34:10;31.00;33.70
7254;DHT22;4060;49.186;9.226;2022-07-29T00:37:00;31.00;33.80
7254;DHT22;4060;49.186;9.226;2022-07-29T00:39:28;30.90;33.80
7254;DHT22;4060;49.186;9.226;2022-07-29T00:41:58;30.90;34.50
7254;DHT22;4060;49.186;9.226;2022-07-29T00:44:27;30.90;34.00
7254;DHT22;4060;49.186;9.226;2022-07-29T00:47:00;30.80;34.00
7254;DHT22;4060;49.186;9.226;2022-07-29T00:49:29;30.80;34.10
7254;DHT22;4060;49.186;9.226;2022-07-29T00:52:01;30.80;34.20
7254;DHT22;4060;49.186;9.226;2022-07-29T00:54:32;30.80;34.30
7254;DHT22;4060;49.186;9.226;2022-07-29T00:57:02;30.70;34.20
7254;DHT22;4060;49.186;9.226;2022-07-29T00:59:32;30.70;34.30
7254;DHT22;4060;49.186;9.226;2022-07-29T01:02:04;30.70;34.40
7254;DHT22;4060;49.186;9.226;2022-07-29T01:04:33;30.60;34.40
7254;DHT22;4060;49.186;9.226;2022-07-29T01:07:03;30.60;34.40
7254;DHT22;4060;49.186;9.226;2022-07-29T01:09:34;30.60;34.50
7254;DHT22;4060;49.186;9.226;2022-07-29T01:12:05;30.60;34.60
7254;DHT22;4060;49.186;9.226;2022-07-29T01:14:36;30.60;34.70
7254;DHT22;4060;49.186;9.226;2022-07-29T01:17:12;30.50;34.70
7254;DHT22;4060;49.186;9.226;2022-07-29T01:19:51;30.50;34.80
7254;DHT22;4060;49.186;9.226;2022-07-29T01:22:36;30.50;34.90
7254;DHT22;4060;49.186;9.226;2022-07-29T01:25:37;30.50;35.00
7254;DHT22;4060;49.186;9.226;2022-07-29T01:31:15;30.40;35.30
7254;DHT22;4060;49.186;9.226;2022-07-29T01:33:50;30.40;35.30
7254;DHT22;4060;49.186;9.226;2022-07-29T01:36:25;30.40;35.30
7254;DHT22;4060;49.186;9.226;2022-07-29T01:39:02;30.30;35.40
7254;DHT22;4060;49.186;9.226;2022-07-29T01:41:35;30.30;35.50
7254;DHT22;4060;49.186;9.226;2022-07-29T01:44:12;30.30;35.50
7254;DHT22;4060;49.186;9.226;2022-07-29T01:46:49;30.30;35.60
7254;DHT22;4060;49.186;9.226;2022-07-29T01:49:24;30.30;35.60
7254;DHT22;4060;49.186;9.226;2022-07-29T01:51:59;30.20;35.70
7254;DHT22;4060;49.186;9.226;2022-07-29T01:54:34;30.20;35.70
7254;DHT22;4060;49.186;9.226;2022-07-29T01:57:04;30.20;35.80
7254;DHT22;4060;49.186;9.226;2022-07-29T01:59:38;30.20;35.80
7254;DHT22;4060;49.186;9.226;2022-07-29T02:02:10;30.20;35.90
7254;DHT22;4060;49.186;9.226;2022-07-29T02:04:40;30.10;35.90
7254;DHT22;4060;49.186;9.226;2022-07-29T02:07:15;30.10;36.00
7254;DHT22;4060;49.186;9.226;2022-07-29T02:09:47;30.10;36.10
7254;DHT22;4060;49.186;9.226;2022-07-29T02:12:18;30.10;36.20
7254;DHT22;4060;49.186;9.226;2022-07-29T02:14:50;30.10;36.30
7254;DHT22;4060;49.186;9.226;2022-07-29T02:17:25;30.00;36.30
7254;DHT22;4060;49.186;9.226;2022-07-29T02:19:59;30.00;36.30
7254;DHT22;4060;49.186;9.226;2022-07-29T02:22:30;30.00;36.40
7254;DHT22;4060;49.186;9.226;2022-07-29T02:25:01;30.00;36.40
7254;DHT22;4060;49.186;9.226;2022-07-29T02:27:31;29.90;36.40
7254;DHT22;4060;49.186;9.226;2022-07-29T02:30:10;29.90;36.40
7254;DHT22;4060;49.186;9.226;2022-07-29T02:32:43;29.90;36.50
7254;DHT22;4060;49.186;9.226;2022-07-29T02:35:14;29.90;36.60
7254;DHT22;4060;49.186;9.226;2022-07-29T02:37:45;29.90;36.70
7254;DHT22;4060;49.186;9.226;2022-07-29T02:40:38;29.80;36.70
7254;DHT22;4060;49.186;9.226;2022-07-29T02:43:10;29.80;36.70
7254;DHT22;4060;49.186;9.226;2022-07-29T02:45:40;29.80;36.80
7254;DHT22;4060;49.186;9.226;2022-07-29T02:48:14;29.80;36.80
7254;DHT22;4060;49.186;9.226;2022-07-29T02:50:48;29.80;36.90
7254;DHT22;4060;49.186;9.226;2022-07-29T02:53:22;29.70;36.80
7254;DHT22;4060;49.186;9.226;2022-07-29T02:55:56;29.70;37.40
7254;DHT22;4060;49.186;9.226;2022-07-29T02:58:29;29.70;37.00
7254;DHT22;4060;49.186;9.226;2022-07-29T03:01:02;29.70;37.20
7254;DHT22;4060;49.186;9.226;2022-07-29T03:03:37;29.60;37.10
7254;DHT22;4060;49.186;9.226;2022-07-29T03:06:08;29.60;37.10
7254;DHT22;4060;49.186;9.226;2022-07-29T03:08:38;29.60;37.10
7254;DHT22;4060;49.186;9.226;2022-07-29T03:11:08;29.60;37.20
7254;DHT22;4060;49.186;9.226;2022-07-29T03:13:39;29.50;37.20
7254;DHT22;4060;49.186;9.226;2022-07-29T03:16:09;29.50;37.20
7254;DHT22;4060;49.186;9.226;2022-07-29T03:18:42;29.50;37.20
7254;DHT22;4060;49.186;9.226;2022-07-29T03:21:12;29.50;37.30
7254;DHT22;4060;49.186;9.226;2022-07-29T03:23:45;29.50;37.30
7254;DHT22;4060;49.186;9.226;2022-07-29T03:26:14;29.40;37.30
7254;DHT22;4060;49.186;9.226;2022-07-29T03:28:44;29.40;37.30
7254;DHT22;4060;49.186;9.226;2022-07-29T03:31:13;29.40;37.30
7254;DHT22;4060;49.186;9.226;2022-07-29T03:33:46;29.40;37.40
7254;DHT22;4060;49.186;9.226;2022-07-29T03:36:15;29.40;37.40
7254;DHT22;4060;49.186;9.226;2022-07-29T03:38:45;29.30;37.30
7254;DHT22;4060;49.186;9.226;2022-07-29T03:41:17;29.30;37.40
7254;DHT22;4060;49.186;9.226;2022-07-29T03:43:48;29.30;37.50
7254;DHT22;4060;49.186;9.226;2022-07-29T03:46:21;29.30;37.50
7254;DHT22;4060;49.186;9.226;2022-07-29T03:48:58;29.20;37.50
7254;DHT22;4060;49.186;9.226;2022-07-29T03:51:29;29.20;37.60
7254;DHT22;4060;49.186;9.226;2022-07-29T03:53:59;29.20;37.60
7254;DHT22;4060;49.186;9.226;2022-07-29T03:56:30;29.20;37.60
7254;DHT22;4060;49.186;9.226;2022-07-29T03:59:02;29.20;37.70
7254;DHT22;4060;49.186;9.226;2022-07-29T04:01:34;29.10;37.70
7254;DHT22;4060;49.186;9.226;2022-07-29T04:04:06;29.10;37.70
7254;DHT22;4060;49.186;9.226;2022-07-29T04:06:42;29.10;37.80
7254;DHT22;4060;49.186;9.226;2022-07-29T04:09:12;29.10;37.80
7254;DHT22;4060;49.186;9.226;2022-07-29T04:11:42;29.00;37.80
7254;DHT22;4060;49.186;9.226;2022-07-29T04:14:11;29.00;37.90
7254;DHT22;4060;49.186;9.226;2022-07-29T04:16:41;29.00;37.90
7254;DHT22;4060;49.186;9.226;2022-07-29T04:19:13;29.00;38.00
7254;DHT22;4060;49.186;9.226;2022-07-29T04:21:43;28.90;38.00
7254;DHT22;4060;49.186;9.226;2022-07-29T04:24:13;28.90;38.00
7254;DHT22;4060;49.186;9.226;2022-07-29T04:26:43;28.90;38.00
7254;DHT22;4060;49.186;9.226;2022-07-29T04:29:12;28.90;38.10
7254;DHT22;4060;49.186;9.226;2022-07-29T04:31:42;28.90;38.20
7254;DHT22;4060;49.186;9.226;2022-07-29T04:34:14;28.80;38.10
7254;DHT22;4060;49.186;9.226;2022-07-29T04:36:45;28.80;38.30
7254;DHT22;4060;49.186;9.226;2022-07-29T04:39:15;28.80;38.30
7254;DHT22;4060;49.186;9.226;2022-07-29T04:41:45;28.80;38.90
7254;DHT22;4060;49.186;9.226;2022-07-29T04:44:15;28.80;38.50
7254;DHT22;4060;49.186;9.226;2022-07-29T04:46:44;28.70;38.60
7254;DHT22;4060;49.186;9.226;2022-07-29T04:49:16;28.60;38.90
7254;DHT22;4060;49.186;9.226;2022-07-29T04:51:45;28.40;39.20
7254;DHT22;4060;49.186;9.226;2022-07-29T04:54:15;28.30;39.60
7254;DHT22;4060;49.186;9.226;2022-07-29T04:56:45;28.10;40.00
7254;DHT22;4060;49.186;9.226;2022-07-29T04:59:15;27.90;40.30
7254;DHT22;4060;49.186;9.226;2022-07-29T05:01:44;27.80;40.60
7254;DHT22;4060;49.186;9.226;2022-07-29T05:04:16;27.60;41.10
7254;DHT22;4060;49.186;9.226;2022-07-29T05:06:45;27.50;41.60
7254;DHT22;4060;49.186;9.226;2022-07-29T05:09:15;27.40;42.00
7254;DHT22;4060;49.186;9.226;2022-07-29T05:11:45;27.20;42.40
7254;DHT22;4060;49.186;9.226;2022-07-29T05:14:14;27.00;42.70
7254;DHT22;4060;49.186;9.226;2022-07-29T05:16:44;26.80;43.00
7254;DHT22;4060;49.186;9.226;2022-07-29T05:19:15;26.70;43.00
7254;DHT22;4060;49.186;9.226;2022-07-29T05:21:45;26.80;43.10
7254;DHT22;4060;49.186;9.226;2022-07-29T05:24:14;26.80;43.10
7254;DHT22;4060;49.186;9.226;2022-07-29T05:26:45;26.90;43.10
7254;DHT22;4060;49.186;9.226;2022-07-29T05:29:15;27.00;43.20
7254;DHT22;4060;49.186;9.226;2022-07-29T05:31:45;27.10;43.10
7254;DHT22;4060;49.186;9.226;2022-07-29T05:34:17;27.30;43.00
7254;DHT22;4060;49.186;9.226;2022-07-29T05:36:47;27.30;42.90
7254;DHT22;4060;49.186;9.226;2022-07-29T05:39:17;27.40;42.70
7254;DHT22;4060;49.186;9.226;2022-07-29T05:41:46;27.50;42.50
7254;DHT22;4060;49.186;9.226;2022-07-29T05:44:16;27.60;42.30
7254;DHT22;4060;49.186;9.226;2022-07-29T05:46:45;27.60;42.20
7254;DHT22;4060;49.186;9.226;2022-07-29T05:49:17;27.70;42.10
7254;DHT22;4060;49.186;9.226;2022-07-29T05:51:46;27.70;41.90
7254;DHT22;4060;49.186;9.226;2022-07-29T05:54:16;27.70;41.80
7254;DHT22;4060;49.186;9.226;2022-07-29T05:56:45;27.80;41.80
7254;DHT22;4060;49.186;9.226;2022-07-29T05:59:15;27.80;41.70
7254;DHT22;4060;49.186;9.226;2022-07-29T06:01:44;27.80;41.70
7254;DHT22;4060;49.186;9.226;2022-07-29T06:04:16;27.80;41.70
7254;DHT22;4060;49.186;9.226;2022-07-29T06:06:45;27.80;41.70
7254;DHT22;4060;49.186;9.226;2022-07-29T06:09:15;27.80;41.70
7254;DHT22;4060;49.186;9.226;2022-07-29T06:11:45;27.80;41.70
7254;DHT22;4060;49.186;9.226;2022-07-29T06:14:14;27.80;41.70
7254;DHT22;4060;49.186;9.226;2022-07-29T06:16:44;27.80;41.70
7254;DHT22;4060;49.186;9.226;2022-07-29T06:19:15;27.80;41.70
7254;DHT22;4060;49.186;9.226;2022-07-29T06:21:46;27.80;41.70
7254;DHT22;4060;49.186;9.226;2022-07-29T06:24:16;27.80;41.90
7254;DHT22;4060;49.186;9.226;2022-07-29T06:26:46;27.80;42.00
7254;DHT22;4060;49.186;9.226;2022-07-29T06:29:15;27.80;42.10
7254;DHT22;4060;49.186;9.226;2022-07-29T06:31:45;27.80;42.10
7254;DHT22;4060;49.186;9.226;2022-07-29T06:34:17;27.90;42.20
7254;DHT22;4060;49.186;9.226;2022-07-29T06:36:46;27.90;42.30
7254;DHT22;4060;49.186;9.226;2022-07-29T06:39:16;27.90;42.30
7254;DHT22;4060;49.186;9.226;2022-07-29T06:41:47;28.00;42.40
7254;DHT22;4060;49.186;9.226;2022-07-29T06:44:17;28.00;42.50
7254;DHT22;4060;49.186;9.226;2022-07-29T06:46:47;28.10;42.50
7254;DHT22;4060;49.186;9.226;2022-07-29T06:49:20;28.10;42.50
7254;DHT22;4060;49.186;9.226;2022-07-29T06:51:51;28.10;42.50
7254;DHT22;4060;49.186;9.226;2022-07-29T06:54:21;28.10;42.50
7254;DHT22;4060;49.186;9.226;2022-07-29T06:56:50;28.10;42.60
7254;DHT22;4060;49.186;9.226;2022-07-29T06:59:20;28.20;42.70
7254;DHT22;4060;49.186;9.226;2022-07-29T07:01:49;28.20;42.70
7254;DHT22;4060;49.186;9.226;2022-07-29T07:04:21;28.20;42.70
7254;DHT22;4060;49.186;9.226;2022-07-29T07:06:50;28.20;42.70
7254;DHT22;4060;49.186;9.226;2022-07-29T07:09:20;28.30;42.70
7254;DHT22;4060;49.186;9.226;2022-07-29T07:11:49;28.30;42.60
7254;DHT22;4060;49.186;9.226;2022-07-29T07:14:19;28.30;42.50
7254;DHT22;4060;49.186;9.226;2022-07-29T07:16:48;28.40;42.50
7254;DHT22;4060;49.186;9.226;2022-07-29T07:19:20;28.40;42.50
7254;DHT22;4060;49.186;9.226;2022-07-29T07:21:49;28.40;42.40
7254;DHT22;4060;49.186;9.226;2022-07-29T07:24:19;28.40;42.50
7254;DHT22;4060;49.186;9.226;2022-07-29T07:26:49;28.40;42.50
7254;DHT22;4060;49.186;9.226;2022-07-29T07:29:18;28.40;42.60
7254;DHT22;4060;49.186;9.226;2022-07-29T07:31:48;28.40;42.60
7254;DHT22;4060;49.186;9.226;2022-07-29T07:34:20;28.40;42.70
7254;DHT22;4060;49.186;9.226;2022-07-29T07:36:49;28.40;42.80
7254;DHT22;4060;49.186;9.226;2022-07-29T07:39:19;28.40;42.80
7254;DHT22;4060;49.186;9.226;2022-07-29T07:41:48;28.40;42.90
7254;DHT22;4060;49.186;9.226;2022-07-29T07:44:18;28.40;43.00
7254;DHT22;4060;49.186;9.226;2022-07-29T07:46:47;28.40;43.00
7254;DHT22;4060;49.186;9.226;2022-07-29T07:49:19;28.50;43.20
7254;DHT22;4060;49.186;9.226;2022-07-29T07:51:48;28.50;43.20
7254;DHT22;4060;49.186;9.226;2022-07-29T07:54:19;28.50;43.20
7254;DHT22;4060;49.186;9.226;2022-07-29T07:56:49;28.60;43.30
7254;DHT22;4060;49.186;9.226;2022-07-29T07:59:19;28.60;43.40
7254;DHT22;4060;49.186;9.226;2022-07-29T08:01:48;28.70;43.40
7254;DHT22;4060;49.186;9.226;2022-07-29T08:04:20;28.60;43.30
7254;DHT22;4060;49.186;9.226;2022-07-29T08:06:49;28.70;43.30
7254;DHT22;4060;49.186;9.226;2022-07-29T08:09:21;28.70;43.30
7254;DHT22;4060;49.186;9.226;2022-07-29T08:11:51;28.70;43.20
7254;DHT22;4060;49.186;9.226;2022-07-29T08:14:21;28.70;43.20
7254;DHT22;4060;49.186;9.226;2022-07-29T08:16:50;28.80;43.30
7254;DHT22;4060;49.186;9.226;2022-07-29T08:19:22;28.80;43.20
7254;DHT22;4060;49.186;9.226;2022-07-29T08:21:52;28.80;43.10
7254;DHT22;4060;49.186;9.226;2022-07-29T08:24:22;28.80;43.10
7254;DHT22;4060;49.186;9.226;2022-07-29T08:27:09;28.80;43.00
7254;DHT22;4060;49.186;9.226;2022-07-29T08:29:38;28.80;42.90
7254;DHT22;4060;49.186;9.226;2022-07-29T08:32:07;28.90;42.90
7254;DHT22;4060;49.186;9.226;2022-07-29T08:34:38;28.90;42.90
7254;DHT22;4060;49.186;9.226;2022-07-29T08:37:08;28.90;42.90
7254;DHT22;4060;49.186;9.226;2022-07-29T08:39:37;28.90;42.90
7254;DHT22;4060;49.186;9.226;2022-07-29T08:42:06;28.90;42.80
7254;DHT22;4060;49.186;9.226;2022-07-29T08:44:37;28.90;43.20
7254;DHT22;4060;49.186;9.226;2022-07-29T08:47:06;28.90;42.60
7254;DHT22;4060;49.186;9.226;2022-07-29T08:49:38;29.00;42.60
7254;DHT22;4060;49.186;9.226;2022-07-29T08:52:11;29.00;42.50
7254;DHT22;4060;49.186;9.226;2022-07-29T08:54:44;29.00;42.50
7254;DHT22;4060;49.186;9.226;2022-07-29T08:57:15;29.00;42.50
7254;DHT22;4060;49.186;9.226;2022-07-29T08:59:47;29.00;42.40
7254;DHT22;4060;49.186;9.226;2022-07-29T09:02:20;29.00;42.40
7254;DHT22;4060;49.186;9.226;2022-07-29T09:04:51;29.00;42.40
7254;DHT22;4060;49.186;9.226;2022-07-29T09:07:21;29.00;42.50
7254;DHT22;4060;49.186;9.226;2022-07-29T09:09:51;29.00;42.50
7254;DHT22;4060;49.186;9.226;2022-07-29T09:12:21;29.10;42.40
7254;DHT22;4060;49.186;9.226;2022-07-29T09:14:52;29.10;42.90
7254;DHT22;4060;49.186;9.226;2022-07-29T09:17:40;29.10;42.30
7254;DHT22;4060;49.186;9.226;2022-07-29T09:20:13;29.10;42.30
7254;DHT22;4060;49.186;9.226;2022-07-29T09:22:43;29.10;42.30
7254;DHT22;4060;49.186;9.226;2022-07-29T09:25:33;29.10;42.40
7254;DHT22;4060;49.186;9.226;2022-07-29T09:28:09;29.10;42.30
7254;DHT22;4060;49.186;9.226;2022-07-29T09:30:51;29.10;42.20
7254;DHT22;4060;49.186;9.226;2022-07-29T09:33:22;29.20;42.20
7254;DHT22;4060;49.186;9.226;2022-07-29T09:36:03;29.30;42.20
7254;DHT22;4060;49.186;9.226;2022-07-29T09:38:33;29.30;42.20
7254;DHT22;4060;49.186;9.226;2022-07-29T09:41:04;29.30;42.10
7254;DHT22;4060;49.186;9.226;2022-07-29T09:43:35;29.30;42.00
7254;DHT22;4060;49.186;9.226;2022-07-29T09:46:11;29.30;42.00
7254;DHT22;4060;49.186;9.226;2022-07-29T09:48:41;29.40;41.90
7254;DHT22;4060;49.186;9.226;2022-07-29T09:51:22;29.40;41.90
7254;DHT22;4060;49.186;9.226;2022-07-29T09:53:52;29.40;41.90
7254;DHT22;4060;49.186;9.226;2022-07-29T09:56:39;29.50;41.80
7254;DHT22;4060;49.186;9.226;2022-07-29T09:59:09;29.50;41.80
7254;DHT22;4060;49.186;9.226;2022-07-29T10:01:39;29.50;41.70
7254;DHT22;4060;49.186;9.226;2022-07-29T10:04:09;29.50;41.70
7254;DHT22;4060;49.186;9.226;2022-07-29T10:06:57;29.50;41.60
7254;DHT22;4060;49.186;9.226;2022-07-29T10:09:27;29.60;41.50
7254;DHT22;4060;49.186;9.226;2022-07-29T10:12:06;29.60;41.40
7254;DHT22;4060;49.186;9.226;2022-07-29T10:14:37;29.60;41.40
7254;DHT22;4060;49.186;9.226;2022-07-29T10:17:07;29.60;41.30
7254;DHT22;4060;49.186;9.226;2022-07-29T10:19:38;29.70;41.30
7254;DHT22;4060;49.186;9.226;2022-07-29T10:22:11;29.70;41.30
7254;DHT22;4060;49.186;9.226;2022-07-29T10:24:40;29.70;41.20
7254;DHT22;4060;49.186;9.226;2022-07-29T10:27:10;29.70;41.20
7254;DHT22;4060;49.186;9.226;2022-07-29T10:29:40;29.70;41.20
7254;DHT22;4060;49.186;9.226;2022-07-29T10:32:30;29.80;41.10
7254;DHT22;4060;49.186;9.226;2022-07-29T10:38:34;29.80;40.90
7254;DHT22;4060;49.186;9.226;2022-07-29T10:41:24;29.90;40.90
7254;DHT22;4060;49.186;9.226;2022-07-29T10:44:01;29.90;40.70
7254;DHT22;4060;49.186;9.226;2022-07-29T10:46:36;29.90;40.60
7254;DHT22;4060;49.186;9.226;2022-07-29T10:49:08;30.00;40.50
7254;DHT22;4060;49.186;9.226;2022-07-29T10:51:56;30.00;40.30
7254;DHT22;4060;49.186;9.226;2022-07-29T10:54:42;30.00;40.10
7254;DHT22;4060;49.186;9.226;2022-07-29T10:57:14;30.00;40.00
7254;DHT22;4060;49.186;9.226;2022-07-29T10:59:45;30.00;40.00
7254;DHT22;4060;49.186;9.226;2022-07-29T11:02:45;30.10;40.00
7254;DHT22;4060;49.186;9.226;2022-07-29T11:05:19;30.10;39.90
7254;DHT22;4060;49.186;9.226;2022-07-29T11:08:18;30.10;39.80
7254;DHT22;4060;49.186;9.226;2022-07-29T11:10:53;30.10;39.80
7254;DHT22;4060;49.186;9.226;2022-07-29T11:13:47;30.20;39.80
7254;DHT22;4060;49.186;9.226;2022-07-29T11:16:18;30.20;39.60
7254;DHT22;4060;49.186;9.226;2022-07-29T11:21:51;30.30;39.50
7254;DHT22;4060;49.186;9.226;2022-07-29T11:24:22;30.30;39.40
7254;DHT22;4060;49.186;9.226;2022-07-29T11:27:15;30.30;39.40
7254;DHT22;4060;49.186;9.226;2022-07-29T11:29:54;30.40;39.30
7254;DHT22;4060;49.186;9.226;2022-07-29T11:32:24;30.40;39.30
7254;DHT22;4060;49.186;9.226;2022-07-29T11:35:11;30.40;39.20
7254;DHT22;4060;49.186;9.226;2022-07-29T11:37:41;30.50;39.20
7254;DHT22;4060;49.186;9.226;2022-07-29T11:40:19;30.50;39.10
7254;DHT22;4060;49.186;9.226;2022-07-29T11:42:51;30.60;39.10
7254;DHT22;4060;49.186;9.226;2022-07-29T11:45:26;30.60;39.00
7254;DHT22;4060;49.186;9.226;2022-07-29T11:48:00;30.60;38.80
7254;DHT22;4060;49.186;9.226;2022-07-29T11:50:35;30.70;38.80
7254;DHT22;4060;49.186;9.226;2022-07-29T11:53:11;30.70;38.70
7254;DHT22;4060;49.186;9.226;2022-07-29T11:55:41;30.70;38.50
7254;DHT22;4060;49.186;9.226;2022-07-29T11:58:12;30.80;38.60
7254;DHT22;4060;49.186;9.226;2022-07-29T12:00:45;30.80;38.50
7254;DHT22;4060;49.186;9.226;2022-07-29T12:03:25;30.80;38.50
7254;DHT22;4060;49.186;9.226;2022-07-29T12:05:55;30.80;38.40
7254;DHT22;4060;49.186;9.226;2022-07-29T12:08:24;30.90;38.40
7254;DHT22;4060;49.186;9.226;2022-07-29T12:10:54;30.90;38.40
7254;DHT22;4060;49.186;9.226;2022-07-29T12:13:39;30.90;38.30
7254;DHT22;4060;49.186;9.226;2022-07-29T12:16:09;31.00;38.20
7254;DHT22;4060;49.186;9.226;2022-07-29T12:18:38;31.00;38.10
7254;DHT22;4060;49.186;9.226;2022-07-29T12:21:08;31.00;38.00
7254;DHT22;4060;49.186;9.226;2022-07-29T12:23:37;31.10;37.90
7254;DHT22;4060;49.186;9.226;2022-07-29T12:26:07;31.10;37.70
7254;DHT22;4060;49.186;9.226;2022-07-29T12:28:39;31.20;37.70
7254;DHT22;4060;49.186;9.226;2022-07-29T12:31:15;31.20;37.60
7254;DHT22;4060;49.186;9.226;2022-07-29T12:33:53;31.30;37.50
7254;DHT22;4060;49.186;9.226;2022-07-29T12:36:23;31.30;37.40
7254;DHT22;4060;49.186;9.226;2022-07-29T12:38:53;31.30;37.40
7254;DHT22;4060;49.186;9.226;2022-07-29T12:41:22;31.30;37.30
7254;DHT22;4060;49.186;9.226;2022-07-29T12:43:58;31.40;37.30
7254;DHT22;4060;49.186;9.226;2022-07-29T12:46:27;31.40;37.20
7254;DHT22;4060;49.186;9.226;2022-07-29T12:48:57;31.40;37.10
7254;DHT22;4060;49.186;9.226;2022-07-29T12:51:30;31.50;37.00
7254;DHT22;4060;49.186;9.226;2022-07-29T12:54:06;31.50;36.80
7254;DHT22;4060;49.186;9.226;2022-07-29T12:56:37;31.60;36.70
7254;DHT22;4060;49.186;9.226;2022-07-29T12:59:17;31.60;36.60
7254;DHT22;4060;49.186;9.226;2022-07-29T13:01:47;31.60;36.60
7254;DHT22;4060;49.186;9.226;2022-07-29T13:04:27;31.60;36.50
7254;DHT22;4060;49.186;9.226;2022-07-29T13:07:01;31.70;36.30
7254;DHT22;4060;49.186;9.226;2022-07-29T13:09:39;31.70;36.10
7254;DHT22;4060;49.186;9.226;2022-07-29T13:12:10;31.70;36.00
7254;DHT22;4060;49.186;9.226;2022-07-29T13:14:43;31.70;35.90
7254;DHT22;4060;49.186;9.226;2022-07-29T13:17:14;31.70;35.80
7254;DHT22;4060;49.186;9.226;2022-07-29T13:19:47;31.80;35.70
7254;DHT22;4060;49.186;9.226;2022-07-29T13:22:18;31.80;35.60
7254;DHT22;4060;49.186;9.226;2022-07-29T13:24:49;31.80;35.50
7254;DHT22;4060;49.186;9.226;2022-07-29T13:27:21;31.80;35.30
7254;DHT22;4060;49.186;9.226;2022-07-29T13:29:53;31.80;35.30
7254;DHT22;4060;49.186;9.226;2022-07-29T13:32:23;31.90;35.30
7254;DHT22;4060;49.186;9.226;2022-07-29T13:34:54;31.90;35.10
7254;DHT22;4060;49.186;9.226;2022-07-29T13:37:24;31.90;35.00
7254;DHT22;4060;49.186;9.226;2022-07-29T13:39:53;31.90;34.80
7254;DHT22;4060;49.186;9.226;2022-07-29T13:42:23;32.00;34.80
7254;DHT22;4060;49.186;9.226;2022-07-29T13:44:55;32.00;34.70
7254;DHT22;4060;49.186;9.226;2022-07-29T13:47:25;32.00;34.70
7254;DHT22;4060;49.186;9.226;2022-07-29T13:49:54;32.00;34.60
7254;DHT22;4060;49.186;9.226;2022-07-29T13:52:24;32.00;34.50
7254;DHT22;4060;49.186;9.226;2022-07-29T13:54:54;32.00;34.20
7254;DHT22;4060;49.186;9.226;2022-07-29T13:57:24;32.00;34.00
7254;DHT22;4060;49.186;9.226;2022-07-29T13:59:56;32.10;34.00
7254;DHT22;4060;49.186;9.226;2022-07-29T14:02:26;32.10;33.90
7254;DHT22;4060;49.186;9.226;2022-07-29T14:04:55;32.10;33.80
7254;DHT22;4060;49.186;9.226;2022-07-29T14:07:30;32.10;33.70
7254;DHT22;4060;49.186;9.226;2022-07-29T14:10:00;32.10;33.60
7254;DHT22;4060;49.186;9.226;2022-07-29T14:12:30;32.10;33.60
7254;DHT22;4060;49.186;9.226;2022-07-29T14:15:01;32.10;33.60
7254;DHT22;4060;49.186;9.226;2022-07-29T14:17:31;32.10;33.40
7254;DHT22;4060;49.186;9.226;2022-07-29T14:20:01;32.20;33.40
7254;DHT22;4060;49.186;9.226;2022-07-29T14:22:31;32.20;33.20
7254;DHT22;4060;49.186;9.226;2022-07-29T14:25:02;32.20;33.20
7254;DHT22;4060;49.186;9.226;2022-07-29T14:27:33;32.20;33.10
7254;DHT22;4060;49.186;9.226;2022-07-29T14:30:06;32.20;33.10
7254;DHT22;4060;49.186;9.226;2022-07-29T14:32:36;32.20;33.10
7254;DHT22;4060;49.186;9.226;2022-07-29T14:35:05;32.20;33.10
7254;DHT22;4060;49.186;9.226;2022-07-29T14:37:35;32.20;33.10
7254;DHT22;4060;49.186;9.226;2022-07-29T14:40:05;32.20;33.00
7254;DHT22;4060;49.186;9.226;2022-07-29T14:42:35;32.20;33.00
7254;DHT22;4060;49.186;9.226;2022-07-29T14:45:08;32.20;33.00
7254;DHT22;4060;49.186;9.226;2022-07-29T14:47:38;32.20;33.00
7254;DHT22;4060;49.186;9.226;2022-07-29T14:50:09;32.20;33.00
7254;DHT22;4060;49.186;9.226;2022-07-29T14:52:38;32.20;32.90
7254;DHT22;4060;49.186;9.226;2022-07-29T14:55:08;32.20;33.40
7254;DHT22;4060;49.186;9.226;2022-07-29T14:57:38;32.20;32.90
7254;DHT22;4060;49.186;9.226;2022-07-29T15:00:10;32.20;32.90
7254;DHT22;4060;49.186;9.226;2022-07-29T15:02:40;32.30;32.90
7254;DHT22;4060;49.186;9.226;2022-07-29T15:05:10;32.20;32.80
7254;DHT22;4060;49.186;9.226;2022-07-29T15:07:39;32.30;32.90
7254;DHT22;4060;49.186;9.226;2022-07-29T15:10:09;32.30;32.80
7254;DHT22;4060;49.186;9.226;2022-07-29T15:12:39;32.30;32.80
7254;DHT22;4060;49.186;9.226;2022-07-29T15:15:12;32.30;32.80
7254;DHT22;4060;49.186;9.226;2022-07-29T15:17:41;32.30;32.80
7254;DHT22;4060;49.186;9.226;2022-07-29T15:20:11;32.30;32.70
7254;DHT22;4060;49.186;9.226;2022-07-29T15:22:41;32.30;32.70
7254;DHT22;4060;49.186;9.226;2022-07-29T15:25:10;32.30;32.70
7254;DHT22;4060;49.186;9.226;2022-07-29T15:27:40;32.30;32.70
7254;DHT22;4060;49.186;9.226;2022-07-29T15:30:13;32.30;32.70
7254;DHT22;4060;49.186;9.226;2022-07-29T15:32:44;32.30;32.60
7254;DHT22;4060;49.186;9.226;2022-07-29T15:35:13;32.30;32.60
7254;DHT22;4060;49.186;9.226;2022-07-29T15:37:43;32.30;32.50
7254;DHT22;4060;49.186;9.226;2022-07-29T15:40:12;32.30;32.50
7254;DHT22;4060;49.186;9.226;2022-07-29T15:42:42;32.30;32.50
7254;DHT22;4060;49.186;9.226;2022-07-29T15:45:13;32.30;32.50
7254;DHT22;4060;49.186;9.226;2022-07-29T15:47:43;32.20;32.50
7254;DHT22;4060;49.186;9.226;2022-07-29T15:50:12;32.30;32.50
7254;DHT22;4060;49.186;9.226;2022-07-29T15:52:43;32.30;32.50
7254;DHT22;4060;49.186;9.226;2022-07-29T15:55:16;32.30;32.40
7254;DHT22;4060;49.186;9.226;2022-07-29T15:57:45;32.30;32.40
7254;DHT22;4060;49.186;9.226;2022-07-29T16:00:18;32.30;32.50
7254;DHT22;4060;49.186;9.226;2022-07-29T16:02:48;32.30;32.50
7254;DHT22;4060;49.186;9.226;2022-07-29T16:05:18;32.30;32.50
7254;DHT22;4060;49.186;9.226;2022-07-29T16:07:48;32.30;32.50
7254;DHT22;4060;49.186;9.226;2022-07-29T16:10:18;32.20;32.40
7254;DHT22;4060;49.186;9.226;2022-07-29T16:12:47;32.20;32.30
7254;DHT22;4060;49.186;9.226;2022-07-29T16:15:19;32.20;32.30
7254;DHT22;4060;49.186;9.226;2022-07-29T16:17:48;32.20;32.20
7254;DHT22;4060;49.186;9.226;2022-07-29T16:20:18;32.30;32.10
7254;DHT22;4060;49.186;9.226;2022-07-29T16:22:48;32.20;32.00
7254;DHT22;4060;49.186;9.226;2022-07-29T16:25:18;32.20;31.90
7254;DHT22;4060;49.186;9.226;2022-07-29T16:27:48;32.20;31.90
7254;DHT22;4060;49.186;9.226;2022-07-29T16:30:19;32.20;31.70
7254;DHT22;4060;49.186;9.226;2022-07-29T16:32:49;32.20;31.70
7254;DHT22;4060;49.186;9.226;2022-07-29T16:35:18;32.20;31.60
7254;DHT22;4060;49.186;9.226;2022-07-29T16:37:47;32.20;31.50
7254;DHT22;4060;49.186;9.226;2022-07-29T16:40:16;32.20;31.50
7254;DHT22;4060;49.186;9.226;2022-07-29T16:42:46;32.20;31.50